createdAt,value
2019-02-28T00:00:37.169Z,6.01
2019-02-28T00:01:36.595Z,6
2019-02-28T00:02:36.587Z,5.96
2019-02-28T00:03:36.566Z,5.91
2019-02-28T00:04:37.635Z,5.91
2019-02-28T00:05:37.907Z,5.99
2019-02-28T00:06:36.531Z,5.97
2019-02-28T00:07:36.516Z,5.93
2019-02-28T00:08:36.501Z,5.96
2019-02-28T00:09:36.488Z,5.93
2019-02-28T00:10:36.474Z,5.89
2019-02-28T00:11:41.513Z,5.86
2019-02-28T00:12:36.446Z,5.97
2019-02-28T00:13:36.691Z,5.79
2019-02-28T00:14:36.425Z,5.81
2019-02-28T00:15:36.405Z,5.79
2019-02-28T00:16:38.672Z,5.86
2019-02-28T00:17:36.382Z,5.82
2019-02-28T00:18:36.367Z,5.79
2019-02-28T00:19:36.358Z,5.83
2019-02-28T00:20:39.012Z,5.85
2019-02-28T00:21:37.307Z,5.82
2019-02-28T00:22:36.312Z,5.93
2019-02-28T00:23:36.330Z,5.89
2019-02-28T00:24:36.298Z,5.85
2019-02-28T00:25:40.260Z,5.83
2019-02-28T00:26:36.258Z,5.79
2019-02-28T00:27:36.242Z,5.86
2019-02-28T00:28:36.231Z,5.83
2019-02-28T00:29:38.601Z,5.83
2019-02-28T00:30:37.312Z,5.89
2019-02-28T00:31:36.188Z,5.86
2019-02-28T00:32:36.182Z,5.86
2019-02-28T00:33:36.410Z,5.78
2019-02-28T00:34:39.154Z,5.83
2019-02-28T00:35:36.141Z,5.82
2019-02-28T00:36:36.138Z,5.82
2019-02-28T00:37:36.118Z,5.82
2019-02-28T00:38:36.096Z,5.78
2019-02-28T00:39:39.673Z,5.79
2019-02-28T00:40:38.451Z,5.83
2019-02-28T00:41:36.050Z,5.83
2019-02-28T00:42:36.036Z,5.85
2019-02-28T00:43:36.027Z,5.9
2019-02-28T00:44:36.199Z,5.75
2019-02-28T00:45:41.104Z,5.83
2019-02-28T00:46:35.989Z,5.79
2019-02-28T00:47:35.969Z,5.82
2019-02-28T00:48:35.969Z,5.85
2019-02-28T00:49:35.940Z,5.86
2019-02-28T00:50:35.927Z,5.76
2019-02-28T00:51:35.913Z,5.86
2019-02-28T00:52:39.912Z,5.79
2019-02-28T00:53:37.363Z,5.86
2019-02-28T00:54:35.874Z,5.75
2019-02-28T00:55:35.861Z,5.81
2019-02-28T00:56:35.851Z,5.76
2019-02-28T00:57:35.831Z,5.76
2019-02-28T00:58:35.818Z,5.74
2019-02-28T00:59:36.589Z,5.72
2019-02-28T01:00:40.245Z,5.74
2019-02-28T01:01:35.777Z,5.76
2019-02-28T01:02:35.766Z,5.76
2019-02-28T01:03:35.750Z,5.71
2019-02-28T01:04:35.741Z,5.68
2019-02-28T01:05:38.794Z,5.68
2019-02-28T01:06:35.711Z,5.65
2019-02-28T01:07:35.707Z,5.68
2019-02-28T01:08:35.681Z,5.68
2019-02-28T01:09:35.756Z,5.79
2019-02-28T01:10:41.339Z,5.68
2019-02-28T01:11:35.640Z,5.72
2019-02-28T01:12:35.389Z,5.67
2019-02-28T01:13:35.623Z,5.61
2019-02-28T01:14:40.242Z,5.67
2019-02-28T01:15:35.592Z,5.63
2019-02-28T01:16:35.837Z,5.71
2019-02-28T01:17:35.972Z,5.76
2019-02-28T01:18:39.370Z,5.76
2019-02-28T01:19:35.531Z,5.75
2019-02-28T01:20:35.523Z,5.79
2019-02-28T01:21:35.503Z,5.74
2019-02-28T01:22:35.486Z,5.72
2019-02-28T01:23:35.477Z,5.64
2019-02-28T01:24:39.420Z,5.67
2019-02-28T01:25:37.150Z,5.74
2019-02-28T01:26:35.746Z,5.64
2019-02-28T01:27:35.434Z,5.67
2019-02-28T01:28:35.408Z,5.64
2019-02-28T01:29:40.130Z,5.51
2019-02-28T01:30:37.042Z,5.64
2019-02-28T01:31:35.369Z,5.63
2019-02-28T01:32:35.351Z,5.57
2019-02-28T01:33:35.336Z,5.63
2019-02-28T01:34:37.704Z,5.61
2019-02-28T01:35:37.491Z,5.74
2019-02-28T01:36:35.309Z,5.51
2019-02-28T01:37:35.282Z,5.56
2019-02-28T01:38:35.265Z,5.58
2019-02-28T01:39:35.597Z,5.65
2019-02-28T01:40:39.885Z,5.57
2019-02-28T01:41:35.238Z,5.56
2019-02-28T01:42:35.222Z,5.51
2019-02-28T01:43:35.212Z,5.51
2019-02-28T01:44:40.441Z,5.6
2019-02-28T01:45:35.178Z,5.57
2019-02-28T01:46:34.929Z,5.56
2019-02-28T01:47:35.394Z,5.63
2019-02-28T01:48:35.128Z,5.58
2019-02-28T01:49:35.113Z,5.57
2019-02-28T01:50:35.212Z,5.65
2019-02-28T01:51:40.508Z,5.65
2019-02-28T01:52:35.073Z,5.54
2019-02-28T01:53:35.064Z,5.65
2019-02-28T01:54:35.049Z,5.63
2019-02-28T01:55:35.034Z,5.63
2019-02-28T01:56:39.050Z,5.64
2019-02-28T01:57:35.005Z,5.61
2019-02-28T01:58:34.991Z,5.57
2019-02-28T01:59:34.982Z,5.54
2019-02-28T02:00:34.963Z,5.57
2019-02-28T02:01:35.811Z,5.56
2019-02-28T02:02:37.996Z,5.67
2019-02-28T02:03:34.922Z,5.71
2019-02-28T02:04:34.911Z,5.65
2019-02-28T02:05:34.916Z,5.72
2019-02-28T02:06:34.883Z,5.71
2019-02-28T02:07:37.831Z,5.71
2019-02-28T02:08:37.760Z,5.74
2019-02-28T02:09:34.865Z,5.68
2019-02-28T02:10:34.828Z,5.79
2019-02-28T02:11:34.815Z,5.78
2019-02-28T02:12:37.180Z,5.86
2019-02-28T02:13:39.122Z,5.89
2019-02-28T02:14:34.775Z,5.89
2019-02-28T02:15:34.764Z,5.85
2019-02-28T02:16:34.744Z,5.86
2019-02-28T02:17:40.054Z,5.89
2019-02-28T02:18:34.966Z,5.86
2019-02-28T02:19:34.700Z,5.86
2019-02-28T02:20:34.688Z,5.81
2019-02-28T02:21:39.292Z,5.83
2019-02-28T02:22:34.670Z,5.9
2019-02-28T02:23:34.665Z,5.83
2019-02-28T02:24:34.396Z,5.79
2019-02-28T02:25:39.851Z,5.83
2019-02-28T02:26:34.607Z,5.86
2019-02-28T02:27:34.591Z,5.79
2019-02-28T02:28:34.582Z,5.83
2019-02-28T02:29:40.731Z,5.83
2019-02-28T02:30:34.565Z,5.86
2019-02-28T02:31:34.548Z,5.81
2019-02-28T02:32:42.289Z,5.89
2019-02-28T02:33:34.519Z,5.82
2019-02-28T02:34:34.697Z,5.85
2019-02-28T02:35:34.503Z,5.85
2019-02-28T02:36:34.472Z,5.9
2019-02-28T02:37:36.002Z,5.78
2019-02-28T02:38:39.759Z,5.89
2019-02-28T02:39:34.435Z,5.83
2019-02-28T02:40:34.436Z,5.85
2019-02-28T02:41:38.318Z,5.86
2019-02-28T02:42:34.390Z,5.89
2019-02-28T02:43:34.395Z,5.9
2019-02-28T02:44:36.651Z,5.9
2019-02-28T02:45:41.501Z,5.89
2019-02-28T02:46:34.344Z,5.9
2019-02-28T02:47:37.278Z,5.9
2019-02-28T02:48:34.309Z,5.89
2019-02-28T02:49:34.541Z,5.89
2019-02-28T02:50:39.442Z,5.86
2019-02-28T02:51:34.266Z,5.9
2019-02-28T02:52:35.292Z,5.9
2019-02-28T02:53:41.339Z,5.86
2019-02-28T02:54:34.250Z,5.83
2019-02-28T02:55:34.239Z,5.86
2019-02-28T02:56:40.453Z,5.89
2019-02-28T02:57:34.191Z,5.85
2019-02-28T02:58:34.186Z,5.82
2019-02-28T02:59:42.337Z,5.86
2019-02-28T03:00:34.153Z,5.78
2019-02-28T03:01:34.132Z,5.83
2019-02-28T03:02:38.033Z,5.86
2019-02-28T03:03:34.109Z,5.79
2019-02-28T03:04:34.114Z,5.83
2019-02-28T03:05:40.133Z,5.82
2019-02-28T03:06:34.087Z,5.85
2019-02-28T03:07:34.055Z,5.76
2019-02-28T03:08:40.887Z,5.83
2019-02-28T03:09:34.026Z,5.85
2019-02-28T03:10:34.041Z,5.9
2019-02-28T03:11:34.005Z,5.76
2019-02-28T03:12:36.083Z,5.83
2019-02-28T03:13:41.835Z,5.89
2019-02-28T03:14:33.957Z,5.78
2019-02-28T03:15:34.062Z,5.82
2019-02-28T03:16:37.924Z,5.82
2019-02-28T03:17:33.928Z,5.89
2019-02-28T03:18:33.901Z,5.76
2019-02-28T03:19:38.105Z,5.78
2019-02-28T03:20:34.115Z,5.86
2019-02-28T03:21:33.858Z,5.86
2019-02-28T03:22:35.170Z,5.81
2019-02-28T03:23:40.684Z,5.82
2019-02-28T03:24:33.823Z,5.83
2019-02-28T03:25:33.886Z,5.79
2019-02-28T03:26:33.790Z,5.86
2019-02-28T03:27:33.801Z,5.82
2019-02-28T03:28:37.561Z,5.78
2019-02-28T03:29:33.754Z,5.89
2019-02-28T03:30:37.979Z,5.79
2019-02-28T03:31:33.770Z,5.83
2019-02-28T03:32:45.430Z,5.86
2019-02-28T03:33:33.930Z,5.83
2019-02-28T03:34:33.753Z,5.85
2019-02-28T03:35:46.707Z,5.91
2019-02-28T03:36:33.646Z,5.82
2019-02-28T03:37:37.829Z,5.82
2019-02-28T03:38:33.627Z,5.86
2019-02-28T03:39:33.617Z,5.82
2019-02-28T03:40:39.704Z,5.79
2019-02-28T03:41:33.602Z,5.83
2019-02-28T03:42:34.800Z,5.81
2019-02-28T03:43:33.559Z,5.89
2019-02-28T03:44:33.556Z,5.75
2019-02-28T03:45:38.835Z,5.83
2019-02-28T03:46:33.536Z,5.89
2019-02-28T03:47:33.517Z,5.79
2019-02-28T03:48:39.873Z,5.9
2019-02-28T03:49:33.512Z,5.83
2019-02-28T03:50:33.492Z,5.9
2019-02-28T03:51:34.434Z,5.9
2019-02-28T03:52:33.443Z,5.82
2019-02-28T03:53:33.415Z,5.85
2019-02-28T03:54:34.723Z,5.82
2019-02-28T03:55:39.701Z,5.86
2019-02-28T03:56:33.381Z,5.86
2019-02-28T03:57:34.409Z,5.9
2019-02-28T03:58:33.360Z,5.81
2019-02-28T03:59:33.357Z,5.86
2019-02-28T04:00:37.475Z,5.85
2019-02-28T04:01:33.319Z,5.85
2019-02-28T04:02:33.069Z,5.86
2019-02-28T04:03:38.323Z,5.83
2019-02-28T04:04:33.287Z,5.79
2019-02-28T04:05:33.387Z,5.83
2019-02-28T04:06:39.128Z,5.9
2019-02-28T04:07:34.635Z,5.9
2019-02-28T04:08:35.231Z,5.85
2019-02-28T04:09:33.205Z,5.82
2019-02-28T04:10:33.186Z,5.82
2019-02-28T04:11:36.692Z,5.86
2019-02-28T04:12:33.159Z,5.86
2019-02-28T04:13:33.145Z,5.81
2019-02-28T04:14:37.668Z,5.86
2019-02-28T04:15:33.122Z,5.83
2019-02-28T04:16:33.105Z,5.86
2019-02-28T04:17:36.238Z,5.76
2019-02-28T04:18:33.157Z,5.78
2019-02-28T04:19:33.064Z,5.78
2019-02-28T04:20:40.947Z,5.75
2019-02-28T04:21:33.032Z,5.76
2019-02-28T04:22:33.022Z,5.74
2019-02-28T04:23:40.600Z,5.71
2019-02-28T04:24:32.999Z,5.79
2019-02-28T04:25:33.015Z,5.78
2019-02-28T04:26:34.749Z,5.74
2019-02-28T04:27:32.958Z,5.68
2019-02-28T04:28:32.941Z,5.75
2019-02-28T04:29:36.042Z,5.74
2019-02-28T04:30:32.914Z,5.67
2019-02-28T04:31:32.690Z,5.65
2019-02-28T04:32:32.879Z,5.72
2019-02-28T04:33:40.113Z,5.61
2019-02-28T04:34:32.869Z,5.65
2019-02-28T04:35:32.847Z,5.56
2019-02-28T04:36:37.978Z,5.54
2019-02-28T04:37:32.826Z,5.54
2019-02-28T04:38:32.799Z,5.65
2019-02-28T04:39:32.780Z,5.63
2019-02-28T04:40:32.768Z,5.64
2019-02-28T04:41:37.418Z,5.61
2019-02-28T04:42:32.737Z,5.61
2019-02-28T04:43:32.724Z,5.54
2019-02-28T04:44:32.712Z,5.53
2019-02-28T04:45:32.697Z,5.57
2019-02-28T04:46:36.351Z,5.6
2019-02-28T04:47:32.669Z,5.53
2019-02-28T04:48:32.656Z,5.6
2019-02-28T04:49:32.643Z,5.56
2019-02-28T04:50:36.084Z,5.57
2019-02-28T04:51:32.621Z,5.63
2019-02-28T04:52:32.601Z,5.58
2019-02-28T04:53:32.584Z,5.67
2019-02-28T04:54:33.467Z,5.63
2019-02-28T04:55:34.192Z,5.53
2019-02-28T04:56:32.546Z,5.57
2019-02-28T04:57:32.529Z,5.54
2019-02-28T04:58:32.518Z,5.58
2019-02-28T04:59:36.618Z,5.57
2019-02-28T05:00:32.491Z,5.53
2019-02-28T05:01:32.474Z,5.61
2019-02-28T05:02:32.470Z,5.56
2019-02-28T05:03:33.826Z,5.58
2019-02-28T05:04:33.156Z,5.53
2019-02-28T05:05:32.418Z,5.49
2019-02-28T05:06:32.405Z,5.49
2019-02-28T05:07:35.050Z,5.49
2019-02-28T05:08:32.387Z,5.48
2019-02-28T05:09:32.362Z,5.53
2019-02-28T05:10:32.349Z,5.57
2019-02-28T05:11:36.106Z,5.54
2019-02-28T05:12:32.330Z,5.42
2019-02-28T05:13:32.307Z,5.49
2019-02-28T05:14:32.291Z,5.49
2019-02-28T05:15:37.183Z,5.39
2019-02-28T05:16:32.269Z,5.45
2019-02-28T05:17:32.281Z,5.46
2019-02-28T05:18:32.951Z,5.45
2019-02-28T05:19:37.938Z,5.46
2019-02-28T05:20:32.877Z,5.39
2019-02-28T05:21:32.211Z,5.43
2019-02-28T05:22:33.295Z,5.35
2019-02-28T05:23:35.734Z,5.38
2019-02-28T05:24:32.412Z,5.35
2019-02-28T05:25:32.149Z,5.35
2019-02-28T05:26:32.127Z,5.28
2019-02-28T05:27:37.492Z,5.3
2019-02-28T05:28:32.098Z,5.2
2019-02-28T05:29:32.083Z,5.22
2019-02-28T05:30:32.074Z,5.22
2019-02-28T05:31:32.785Z,5.28
2019-02-28T05:32:37.663Z,5.28
2019-02-28T05:33:32.027Z,5.24
2019-02-28T05:34:32.027Z,5.24
2019-02-28T05:35:32.001Z,5.22
2019-02-28T05:36:34.520Z,5.28
2019-02-28T05:37:31.968Z,5.2
2019-02-28T05:38:32.014Z,5.22
2019-02-28T05:39:35.682Z,5.28
2019-02-28T05:40:31.929Z,5.21
2019-02-28T05:41:31.911Z,5.24
2019-02-28T05:42:31.903Z,5.2
2019-02-28T05:43:36.585Z,5.24
2019-02-28T05:44:31.873Z,5.18
2019-02-28T05:45:31.891Z,5.13
2019-02-28T05:46:31.843Z,5.21
2019-02-28T05:47:47.539Z,5.3
2019-02-28T05:48:31.814Z,5.24
2019-02-28T05:49:31.798Z,5.25
2019-02-28T05:50:31.794Z,5.2
2019-02-28T05:51:31.775Z,5.27
2019-02-28T05:52:35.811Z,5.18
2019-02-28T05:53:31.743Z,5.3
2019-02-28T05:54:31.730Z,5.22
2019-02-28T05:55:32.628Z,5.22
2019-02-28T05:56:35.319Z,5.25
2019-02-28T05:57:31.686Z,5.22
2019-02-28T05:58:31.675Z,5.22
2019-02-28T05:59:32.289Z,5.28
2019-02-28T06:00:33.328Z,5.24
2019-02-28T06:01:31.630Z,5.27
2019-02-28T06:02:31.614Z,5.22
2019-02-28T06:03:34.329Z,5.17
2019-02-28T06:04:34.132Z,5.31
2019-02-28T06:05:31.570Z,5.28
2019-02-28T06:06:31.594Z,5.22
2019-02-28T06:07:34.191Z,5.33
2019-02-28T06:08:31.532Z,5.31
2019-02-28T06:09:31.518Z,5.3
2019-02-28T06:10:31.504Z,5.35
2019-02-28T06:11:37.137Z,5.43
2019-02-28T06:12:31.474Z,5.42
2019-02-28T06:13:31.460Z,5.39
2019-02-28T06:14:32.508Z,5.42
2019-02-28T06:15:37.123Z,5.46
2019-02-28T06:16:31.419Z,5.54
2019-02-28T06:17:31.412Z,5.53
2019-02-28T06:18:38.109Z,5.54
2019-02-28T06:19:31.391Z,5.6
2019-02-28T06:20:31.363Z,5.56
2019-02-28T06:21:31.346Z,5.58
2019-02-28T06:22:36.175Z,5.58
2019-02-28T06:23:31.319Z,5.63
2019-02-28T06:24:31.321Z,5.53
2019-02-28T06:25:31.310Z,5.6
2019-02-28T06:26:34.354Z,5.63
2019-02-28T06:27:40.788Z,5.61
2019-02-28T06:28:35.450Z,5.75
2019-02-28T06:29:32.573Z,5.89
2019-02-28T06:30:32.615Z,5.83
2019-02-28T06:31:31.212Z,5.96
2019-02-28T06:32:32.197Z,6.11
2019-02-28T06:33:35.620Z,6.25
2019-02-28T06:34:33.279Z,6.34
2019-02-28T06:35:31.156Z,6.44
2019-02-28T06:36:34.554Z,6.69
2019-02-28T06:37:31.130Z,6.67
2019-02-28T06:38:31.115Z,6.89
2019-02-28T06:39:32.372Z,7.05
2019-02-28T06:40:35.221Z,7.15
2019-02-28T06:41:31.081Z,7.28
2019-02-28T06:42:31.077Z,7.43
2019-02-28T06:43:31.050Z,7.55
2019-02-28T06:44:32.392Z,7.72
2019-02-28T06:45:31.027Z,7.9
2019-02-28T06:46:31.019Z,7.93
2019-02-28T06:47:30.760Z,8.12
2019-02-28T06:48:31.501Z,8.28
2019-02-28T06:49:30.993Z,8.41
2019-02-28T06:50:31.001Z,8.5
2019-02-28T06:51:30.960Z,8.62
2019-02-28T06:52:30.947Z,8.77
2019-02-28T06:53:36.127Z,8.89
2019-02-28T06:54:30.932Z,9.05
2019-02-28T06:55:30.913Z,9.17
2019-02-28T06:56:30.914Z,9.35
2019-02-28T06:57:33.043Z,9.47
2019-02-28T06:58:35.430Z,9.5
2019-02-28T06:59:30.875Z,9.64
2019-02-28T07:00:30.869Z,9.69
2019-02-28T07:01:32.030Z,9.86
2019-02-28T07:02:35.855Z,9.93
2019-02-28T07:03:30.844Z,9.99
2019-02-28T07:05:31.162Z,10.29
2019-02-28T07:06:35.599Z,10.38
2019-02-28T07:07:30.800Z,10.48
2019-02-28T07:08:33.642Z,10.59
2019-02-28T07:09:33.529Z,10.71
2019-02-28T07:10:30.785Z,10.82
2019-02-28T07:11:30.767Z,10.89
2019-02-28T07:12:35.541Z,11.1
2019-02-28T07:13:30.774Z,11.24
2019-02-28T07:14:30.777Z,11.32
2019-02-28T07:15:30.517Z,11.22
2019-02-28T07:16:37.827Z,11.37
2019-02-28T07:17:30.723Z,11.52
2019-02-28T07:18:30.711Z,11.55
2019-02-28T07:19:31.770Z,11.75
2019-02-28T07:20:30.692Z,11.83
2019-02-28T07:21:30.694Z,11.82
2019-02-28T07:22:30.693Z,11.91
2019-02-28T07:23:34.301Z,12.04
2019-02-28T07:24:30.675Z,12.09
2019-02-28T07:25:30.419Z,12.13
2019-02-28T07:26:30.656Z,12.16
2019-02-28T07:27:33.654Z,12.29
2019-02-28T07:28:36.054Z,12.23
2019-02-28T07:29:32.038Z,12.45
2019-02-28T07:30:30.628Z,12.46
2019-02-28T07:31:30.620Z,12.56
2019-02-28T07:32:36.397Z,12.59
2019-02-28T07:33:30.607Z,12.68
2019-02-28T07:34:30.618Z,12.59
2019-02-28T07:35:36.862Z,12.65
2019-02-28T07:36:30.616Z,12.65
2019-02-28T07:37:30.584Z,12.64
2019-02-28T07:38:34.446Z,12.62
2019-02-28T07:39:30.605Z,12.56
2019-02-28T07:40:30.581Z,12.59
2019-02-28T07:41:32.226Z,12.59
2019-02-28T07:42:30.556Z,12.6
2019-02-28T07:43:30.564Z,12.57
2019-02-28T07:44:30.547Z,12.59
2019-02-28T07:45:35.089Z,12.6
2019-02-28T07:46:30.544Z,12.59
2019-02-28T07:47:30.526Z,12.56
2019-02-28T07:48:34.593Z,12.56
2019-02-28T07:49:35.517Z,12.53
2019-02-28T07:50:30.509Z,12.54
2019-02-28T07:51:31.202Z,12.56
2019-02-28T07:52:37.209Z,12.49
2019-02-28T07:53:30.577Z,12.47
2019-02-28T07:54:31.303Z,12.45
2019-02-28T07:55:33.404Z,12.42
2019-02-28T07:56:30.475Z,12.31
2019-02-28T07:57:30.515Z,12.37
2019-02-28T07:58:35.977Z,12.23
2019-02-28T07:59:30.486Z,12.21
2019-02-28T08:00:30.704Z,12.17
2019-02-28T08:01:33.219Z,12.19
2019-02-28T08:02:30.442Z,12.02
2019-02-28T08:03:30.441Z,12.01
2019-02-28T08:04:30.445Z,11.95
2019-02-28T08:05:34.917Z,11.83
2019-02-28T08:06:30.425Z,11.85
2019-02-28T08:07:30.414Z,11.82
2019-02-28T08:08:31.675Z,11.78
2019-02-28T08:09:30.401Z,11.73
2019-02-28T08:10:30.392Z,11.65
2019-02-28T08:11:30.388Z,11.62
2019-02-28T08:12:33.703Z,11.49
2019-02-28T08:13:30.366Z,11.49
2019-02-28T08:14:30.361Z,11.51
2019-02-28T08:15:30.371Z,11.4
2019-02-28T08:16:33.901Z,11.39
2019-02-28T08:17:30.337Z,11.4
2019-02-28T08:18:31.639Z,11.4
2019-02-28T08:19:32.614Z,11.33
2019-02-28T08:20:35.970Z,11.22
2019-02-28T08:21:30.311Z,11.29
2019-02-28T08:22:31.312Z,11.21
2019-02-28T08:23:34.759Z,11.37
2019-02-28T08:24:31.397Z,11.27
2019-02-28T08:25:30.267Z,11.25
2019-02-28T08:26:30.262Z,11.24
2019-02-28T08:27:30.986Z,11.21
2019-02-28T08:28:35.475Z,11.28
2019-02-28T08:29:30.246Z,11.22
2019-02-28T08:30:30.235Z,11.22
2019-02-28T08:31:36.728Z,11.27
2019-02-28T08:32:30.209Z,11.28
2019-02-28T08:33:30.213Z,11.22
2019-02-28T08:34:30.195Z,11.27
2019-02-28T08:35:36.682Z,11.28
2019-02-28T08:36:30.209Z,11.24
2019-02-28T08:37:30.167Z,11.29
2019-02-28T08:38:34.198Z,11.32
2019-02-28T08:39:29.906Z,11.35
2019-02-28T08:40:31.598Z,11.36
2019-02-28T08:41:31.088Z,11.35
2019-02-28T08:42:30.129Z,11.22
2019-02-28T08:43:32.175Z,11.39
2019-02-28T08:44:30.109Z,11.4
2019-02-28T08:45:35.308Z,11.36
2019-02-28T08:46:30.088Z,11.39
2019-02-28T08:47:30.080Z,11.47
2019-02-28T08:48:37.347Z,11.37
2019-02-28T08:49:30.065Z,11.43
2019-02-28T08:50:30.059Z,11.49
2019-02-28T08:51:35.425Z,11.54
2019-02-28T08:52:30.040Z,11.54
2019-02-28T08:53:30.035Z,11.54
2019-02-28T08:54:32.205Z,11.52
2019-02-28T08:55:33.820Z,11.54
2019-02-28T08:56:31.586Z,11.51
2019-02-28T08:57:30.480Z,11.54
2019-02-28T08:58:29.982Z,11.57
2019-02-28T08:59:29.975Z,11.54
2019-02-28T09:00:37.594Z,11.51
2019-02-28T09:01:29.961Z,11.49
2019-02-28T09:02:30.408Z,11.49
2019-02-28T09:03:32.715Z,11.6
2019-02-28T09:04:29.938Z,11.52
2019-02-28T09:05:32.538Z,11.58
2019-02-28T09:06:30.038Z,11.49
2019-02-28T09:07:29.922Z,11.52
2019-02-28T09:08:30.679Z,11.62
2019-02-28T09:09:31.627Z,11.52
2019-02-28T09:10:29.878Z,11.69
2019-02-28T09:11:29.868Z,11.67
2019-02-28T09:12:35.302Z,11.78
2019-02-28T09:13:29.973Z,11.78
2019-02-28T09:14:29.842Z,11.78
2019-02-28T09:15:34.972Z,11.91
2019-02-28T09:16:29.828Z,11.83
2019-02-28T09:17:29.815Z,11.91
2019-02-28T09:18:29.807Z,12.02
2019-02-28T09:19:32.489Z,12.14
2019-02-28T09:20:29.801Z,12.12
2019-02-28T09:21:29.781Z,12.14
2019-02-28T09:22:32.762Z,12.16
2019-02-28T09:23:29.776Z,12.23
2019-02-28T09:24:30.781Z,12.29
2019-02-28T09:25:31.759Z,12.16
2019-02-28T09:26:33.373Z,12.2
2019-02-28T09:27:29.735Z,12.24
2019-02-28T09:28:29.724Z,12.27
2019-02-28T09:29:29.712Z,12.39
2019-02-28T09:30:33.890Z,12.38
2019-02-28T09:31:29.695Z,12.49
2019-02-28T09:32:29.688Z,12.41
2019-02-28T09:33:29.679Z,12.49
2019-02-28T09:34:33.214Z,12.49
2019-02-28T09:35:29.672Z,12.45
2019-02-28T09:36:29.656Z,12.52
2019-02-28T09:37:34.407Z,12.52
2019-02-28T09:38:29.638Z,12.54
2019-02-28T09:39:29.637Z,12.57
2019-02-28T09:40:32.749Z,12.71
2019-02-28T09:41:29.615Z,12.7
2019-02-28T09:42:29.629Z,12.7
2019-02-28T09:43:29.716Z,12.75
2019-02-28T09:44:31.368Z,12.74
2019-02-28T09:45:29.338Z,12.78
2019-02-28T09:46:29.573Z,12.72
2019-02-28T09:47:32.047Z,12.82
2019-02-28T09:48:30.659Z,12.85
2019-02-28T09:49:29.563Z,12.93
2019-02-28T09:50:29.565Z,13.01
2019-02-28T09:51:34.193Z,12.97
2019-02-28T09:52:29.524Z,13.01
2019-02-28T09:53:29.540Z,13.08
2019-02-28T09:54:30.280Z,13.12
2019-02-28T09:55:34.042Z,13.19
2019-02-28T09:56:29.495Z,13.17
2019-02-28T09:57:30.221Z,13.19
2019-02-28T09:58:33.621Z,13.23
2019-02-28T09:59:29.474Z,13.25
2019-02-28T10:00:30.137Z,13.26
2019-02-28T10:01:29.956Z,13.29
2019-02-28T10:02:29.454Z,13.32
2019-02-28T10:03:29.440Z,13.36
2019-02-28T10:04:34.753Z,13.39
2019-02-28T10:05:29.428Z,13.42
2019-02-28T10:06:29.415Z,13.46
2019-02-28T10:07:31.241Z,13.39
2019-02-28T10:08:29.403Z,13.52
2019-02-28T10:09:29.393Z,13.54
2019-02-28T10:10:29.403Z,13.55
2019-02-28T10:11:33.918Z,13.6
2019-02-28T10:12:29.373Z,13.6
2019-02-28T10:13:30.879Z,13.67
2019-02-28T10:14:34.602Z,13.69
2019-02-28T10:15:29.355Z,13.84
2019-02-28T10:16:29.338Z,13.73
2019-02-28T10:17:33.477Z,13.87
2019-02-28T10:18:29.330Z,13.85
2019-02-28T10:19:29.322Z,13.88
2019-02-28T10:20:32.903Z,13.85
2019-02-28T10:21:30.151Z,13.85
2019-02-28T10:22:29.294Z,13.88
2019-02-28T10:23:29.314Z,13.81
2019-02-28T10:24:31.390Z,13.81
2019-02-28T10:25:29.272Z,13.88
2019-02-28T10:26:29.264Z,13.85
2019-02-28T10:27:32.231Z,13.92
2019-02-28T10:28:29.249Z,13.87
2019-02-28T10:29:29.243Z,13.99
2019-02-28T10:30:36.977Z,14.07
2019-02-28T10:31:41.049Z,14.06
2019-02-28T10:32:29.238Z,14.07
2019-02-28T10:33:29.212Z,14.06
2019-02-28T10:34:32.100Z,14.06
2019-02-28T10:35:29.202Z,14.15
2019-02-28T10:36:29.195Z,14.14
2019-02-28T10:37:29.187Z,14.17
2019-02-28T10:38:35.125Z,14.17
2019-02-28T10:39:29.178Z,14.12
2019-02-28T10:40:29.164Z,14.09
2019-02-28T10:41:34.001Z,14.15
2019-02-28T10:42:29.149Z,14.17
2019-02-28T10:43:29.147Z,14.24
2019-02-28T10:44:35.259Z,14.32
2019-02-28T10:45:29.130Z,14.21
2019-02-28T10:46:29.121Z,14.27
2019-02-28T10:47:32.983Z,14.25
2019-02-28T10:48:29.110Z,14.18
2019-02-28T10:49:29.706Z,14.18
2019-02-28T10:50:34.588Z,14.2
2019-02-28T10:51:29.093Z,14.21
2019-02-28T10:52:33.107Z,14.1
2019-02-28T10:53:29.637Z,14.17
2019-02-28T10:54:29.064Z,14.09
2019-02-28T10:55:29.055Z,14.07
2019-02-28T10:56:34.197Z,14.06
2019-02-28T10:57:29.048Z,14.06
2019-02-28T10:58:29.063Z,14.06
2019-02-28T10:59:29.646Z,14.04
2019-02-28T11:00:34.557Z,14.02
2019-02-28T11:01:29.012Z,13.97
2019-02-28T11:02:29.008Z,13.88
2019-02-28T11:03:34.356Z,13.91
2019-02-28T11:04:30.240Z,13.89
2019-02-28T11:05:29.968Z,13.97
2019-02-28T11:06:32.659Z,13.85
2019-02-28T11:07:28.972Z,13.88
2019-02-28T11:08:28.964Z,13.87
2019-02-28T11:09:30.325Z,13.88
2019-02-28T11:10:29.022Z,13.96
2019-02-28T11:11:28.941Z,13.92
2019-02-28T11:12:28.936Z,14.04
2019-02-28T11:13:33.993Z,14
2019-02-28T11:14:28.928Z,14.09
2019-02-28T11:15:28.925Z,14.04
2019-02-28T11:16:29.312Z,14.04
2019-02-28T11:17:30.350Z,14.06
2019-02-28T11:18:28.888Z,14.14
2019-02-28T11:19:28.884Z,14.14
2019-02-28T11:20:33.232Z,14.09
2019-02-28T11:21:32.709Z,14.18
2019-02-28T11:22:28.860Z,14.18
2019-02-28T11:23:28.854Z,14.12
2019-02-28T11:24:31.796Z,14.17
2019-02-28T11:25:28.840Z,14.22
2019-02-28T11:26:28.841Z,14.18
2019-02-28T11:27:28.861Z,14.15
2019-02-28T11:28:32.816Z,14.17
2019-02-28T11:29:28.809Z,14.09
2019-02-28T11:30:28.800Z,14.04
2019-02-28T11:31:30.558Z,14.14
2019-02-28T11:32:32.310Z,14.06
2019-02-28T11:33:28.780Z,14.09
2019-02-28T11:34:28.775Z,14.06
2019-02-28T11:35:28.780Z,14.06
2019-02-28T11:36:30.431Z,14.07
2019-02-28T11:37:28.752Z,13.99
2019-02-28T11:38:28.747Z,13.88
2019-02-28T11:39:33.684Z,13.89
2019-02-28T11:40:28.729Z,13.89
2019-02-28T11:41:28.721Z,13.89
2019-02-28T11:42:33.666Z,13.92
2019-02-28T11:43:29.243Z,13.92
2019-02-28T11:44:28.699Z,13.88
2019-02-28T11:45:30.335Z,13.91
2019-02-28T11:46:28.691Z,13.88
2019-02-28T11:47:28.680Z,13.89
2019-02-28T11:48:28.692Z,13.87
2019-02-28T11:49:32.851Z,13.88
2019-02-28T11:50:28.655Z,13.92
2019-02-28T11:51:30.300Z,14.04
2019-02-28T11:52:29.809Z,14.07
2019-02-28T11:53:28.632Z,14.09
2019-02-28T11:54:28.628Z,14.14
2019-02-28T11:55:29.596Z,14.1
2019-02-28T11:56:33.361Z,14.21
2019-02-28T11:57:28.359Z,14.2
2019-02-28T11:58:30.413Z,14.22
2019-02-28T11:59:30.038Z,14.21
2019-02-28T12:00:28.586Z,14.21
2019-02-28T12:01:28.590Z,14.28
2019-02-28T12:02:28.571Z,14.29
2019-02-28T12:03:28.591Z,14.24
2019-02-28T12:04:28.554Z,14.42
2019-02-28T12:05:28.543Z,14.37
2019-02-28T12:06:30.956Z,14.45
2019-02-28T12:07:28.532Z,14.5
2019-02-28T12:08:28.528Z,14.4
2019-02-28T12:09:28.518Z,14.46
2019-02-28T12:10:31.796Z,14.46
2019-02-28T12:11:29.911Z,14.55
2019-02-28T12:12:28.498Z,14.51
2019-02-28T12:13:28.489Z,14.52
2019-02-28T12:14:33.540Z,14.5
2019-02-28T12:15:28.482Z,14.5
2019-02-28T12:16:28.467Z,14.58
2019-02-28T12:17:32.910Z,14.6
2019-02-28T12:18:28.628Z,14.58
2019-02-28T12:19:28.525Z,14.46
2019-02-28T12:20:31.308Z,14.57
2019-02-28T12:21:28.432Z,14.51
2019-02-28T12:22:28.426Z,14.58
2019-02-28T12:23:29.083Z,14.55
2019-02-28T12:24:29.330Z,14.55
2019-02-28T12:25:28.403Z,14.55
2019-02-28T12:26:28.400Z,14.55
2019-02-28T12:27:30.513Z,14.58
2019-02-28T12:28:28.383Z,14.54
2019-02-28T12:29:28.379Z,14.51
2019-02-28T12:30:30.005Z,14.52
2019-02-28T12:31:28.361Z,14.55
2019-02-28T12:32:28.355Z,14.58
2019-02-28T12:33:28.360Z,14.55
2019-02-28T12:34:32.058Z,14.65
2019-02-28T12:35:28.333Z,14.58
2019-02-28T12:37:28.323Z,14.61
2019-02-28T12:38:31.563Z,14.65
2019-02-28T12:39:28.497Z,14.68
2019-02-28T12:40:28.299Z,14.72
2019-02-28T12:41:30.002Z,14.68
2019-02-28T12:42:28.287Z,14.64
2019-02-28T12:43:28.281Z,14.73
2019-02-28T12:44:28.271Z,14.77
2019-02-28T12:45:29.767Z,14.73
2019-02-28T12:46:31.766Z,14.73
2019-02-28T12:47:29.466Z,14.75
2019-02-28T12:48:29.601Z,14.75
2019-02-28T12:49:30.884Z,14.77
2019-02-28T12:50:32.009Z,14.83
2019-02-28T12:51:28.226Z,14.84
2019-02-28T12:52:28.253Z,14.78
2019-02-28T12:53:30.095Z,14.83
2019-02-28T12:54:30.256Z,14.81
2019-02-28T12:55:28.197Z,14.84
2019-02-28T12:56:28.188Z,14.86
2019-02-28T12:57:28.183Z,14.86
2019-02-28T12:58:36.086Z,14.94
2019-02-28T12:59:27.929Z,14.86
2019-02-28T13:00:28.871Z,14.86
2019-02-28T13:01:28.167Z,14.91
2019-02-28T13:02:28.155Z,14.94
2019-02-28T13:03:28.145Z,14.99
2019-02-28T13:04:28.135Z,14.91
2019-02-28T13:05:28.129Z,15.01
2019-02-28T13:06:29.418Z,14.95
2019-02-28T13:07:30.375Z,14.92
2019-02-28T13:08:44.738Z,14.96
2019-02-28T13:09:30.081Z,14.88
2019-02-28T13:10:33.549Z,14.98